sensor_id;sensor_type;location;lat;lon;timestamp;pressure;altitude;pressure_sealevel;temperature;humidity
32298;BME280;18782;48.984;8.548;2023-04-07T00:00:44;99963.78;;;7.98;93.15
32298;BME280;18782;48.984;8.548;2023-04-07T00:03:12;99957.06;;;8.00;93.53
32298;BME280;18782;48.984;8.548;2023-04-07T00:05:40;99955.19;;;7.96;94.13
32298;BME280;18782;48.984;8.548;2023-04-07T00:08:07;99963.59;;;7.92;94.09
32298;BME280;18782;48.984;8.548;2023-04-07T00:10:35;99960.06;;;7.89;94.57
32298;BME280;18782;48.984;8.548;2023-04-07T00:13:04;99948.13;;;7.89;93.87
32298;BME280;18782;48.984;8.548;2023-04-07T00:15:31;99953.25;;;7.89;93.62
32298;BME280;18782;48.984;8.548;2023-04-07T00:17:59;99954.66;;;7.81;94.27
32298;BME280;18782;48.984;8.548;2023-04-07T00:20:27;99952.13;;;7.82;94.90
32298;BME280;18782;48.984;8.548;2023-04-07T00:22:54;99959.69;;;7.78;95.38
32298;BME280;18782;48.984;8.548;2023-04-07T00:25:22;99950.41;;;7.81;95.54
32298;BME280;18782;48.984;8.548;2023-04-07T00:27:50;99944.41;;;7.81;95.66
32298;BME280;18782;48.984;8.548;2023-04-07T00:30:19;99944.41;;;7.81;95.87
32298;BME280;18782;48.984;8.548;2023-04-07T00:32:47;99940.94;;;7.79;96.02
32298;BME280;18782;48.984;8.548;2023-04-07T00:35:14;99941.69;;;7.76;96.32
32298;BME280;18782;48.984;8.548;2023-04-07T00:37:42;99939.78;;;7.71;96.56
32298;BME280;18782;48.984;8.548;2023-04-07T00:40:10;99931.22;;;7.70;96.71
32298;BME280;18782;48.984;8.548;2023-04-07T00:42:39;99925.34;;;7.73;96.05
32298;BME280;18782;48.984;8.548;2023-04-07T00:45:08;99925.34;;;7.73;96.02
32298;BME280;18782;48.984;8.548;2023-04-07T00:47:38;99916.72;;;7.71;95.93
32298;BME280;18782;48.984;8.548;2023-04-07T00:50:07;99909.06;;;7.72;96.10
32298;BME280;18782;48.984;8.548;2023-04-07T00:52:34;99907.41;;;7.73;95.97
32298;BME280;18782;48.984;8.548;2023-04-07T00:55:02;99899.72;;;7.73;95.58
32298;BME280;18782;48.984;8.548;2023-04-07T00:57:30;99903.19;;;7.75;95.37
32298;BME280;18782;48.984;8.548;2023-04-07T00:59:58;99898.78;;;7.71;95.95
32298;BME280;18782;48.984;8.548;2023-04-07T01:02:31;99903.91;;;7.71;95.64
32298;BME280;18782;48.984;8.548;2023-04-07T01:05:08;99897.94;;;7.72;95.68
32298;BME280;18782;48.984;8.548;2023-04-07T01:07:50;99900.59;;;7.73;95.89
32298;BME280;18782;48.984;8.548;2023-04-07T01:10:26;99894.69;;;7.76;95.55
32298;BME280;18782;48.984;8.548;2023-04-07T01:13:04;99888.72;;;7.77;95.33
32298;BME280;18782;48.984;8.548;2023-04-07T01:15:33;99877.69;;;7.78;95.91
32298;BME280;18782;48.984;8.548;2023-04-07T01:18:08;99876.88;;;7.79;95.87
32298;BME280;18782;48.984;8.548;2023-04-07T01:20:38;99882.06;;;7.82;96.17
32298;BME280;18782;48.984;8.548;2023-04-07T01:23:07;99880.38;;;7.82;96.31
32298;BME280;18782;48.984;8.548;2023-04-07T01:25:53;99877.97;;;7.87;95.62
32298;BME280;18782;48.984;8.548;2023-04-07T01:28:54;99877.16;;;7.88;95.24
32298;BME280;18782;48.984;8.548;2023-04-07T01:31:25;99865.25;;;7.89;94.67
32298;BME280;18782;48.984;8.548;2023-04-07T01:38:05;99871.94;;;7.85;94.19
32298;BME280;18782;48.984;8.548;2023-04-07T01:40:34;99864.25;;;7.85;94.19
32298;BME280;18782;48.984;8.548;2023-04-07T01:43:03;99869.25;;;7.82;94.34
32298;BME280;18782;48.984;8.548;2023-04-07T01:45:33;99866.69;;;7.82;94.64
32298;BME280;18782;48.984;8.548;2023-04-07T01:48:04;99860.66;;;7.80;94.98
32298;BME280;18782;48.984;8.548;2023-04-07T01:50:33;99860.66;;;7.80;94.95
32298;BME280;18782;48.984;8.548;2023-04-07T01:53:02;99846.16;;;7.80;95.05
32298;BME280;18782;48.984;8.548;2023-04-07T01:55:30;99852.16;;;7.81;95.16
32298;BME280;18782;48.984;8.548;2023-04-07T01:58:03;99843.56;;;7.79;95.50
32298;BME280;18782;48.984;8.548;2023-04-07T02:00:33;99840.00;;;7.75;95.58
32298;BME280;18782;48.984;8.548;2023-04-07T02:03:12;99843.44;;;7.76;95.19
32298;BME280;18782;48.984;8.548;2023-04-07T02:05:48;99839.97;;;7.74;95.71
32298;BME280;18782;48.984;8.548;2023-04-07T02:08:19;99838.09;;;7.70;95.38
32298;BME280;18782;48.984;8.548;2023-04-07T02:10:49;99836.47;;;7.72;95.56
32298;BME280;18782;48.984;8.548;2023-04-07T02:13:19;99835.59;;;7.71;95.46
32298;BME280;18782;48.984;8.548;2023-04-07T02:15:49;99837.28;;;7.71;95.46
32298;BME280;18782;48.984;8.548;2023-04-07T02:18:19;99833.84;;;7.70;95.66
32298;BME280;18782;48.984;8.548;2023-04-07T02:20:47;99828.84;;;7.73;96.04
32298;BME280;18782;48.984;8.548;2023-04-07T02:23:17;99834.84;;;7.74;96.08
32298;BME280;18782;48.984;8.548;2023-04-07T02:25:44;99839.97;;;7.74;95.71
32298;BME280;18782;48.984;8.548;2023-04-07T02:28:12;99833.91;;;7.72;95.53
32298;BME280;18782;48.984;8.548;2023-04-07T02:30:39;99833.09;;;7.73;95.64
32298;BME280;18782;48.984;8.548;2023-04-07T02:33:07;99833.84;;;7.70;95.64
32298;BME280;18782;48.984;8.548;2023-04-07T02:35:36;99836.38;;;7.69;95.47
32298;BME280;18782;48.984;8.548;2023-04-07T02:42:16;99819.16;;;7.65;96.08
32298;BME280;18782;48.984;8.548;2023-04-07T02:44:44;99814.88;;;7.65;96.14
32298;BME280;18782;48.984;8.548;2023-04-07T02:47:11;99818.38;;;7.67;95.94
32298;BME280;18782;48.984;8.548;2023-04-07T02:49:39;99817.50;;;7.67;96.08
32298;BME280;18782;48.984;8.548;2023-04-07T02:52:08;99810.63;;;7.66;95.59
32298;BME280;18782;48.984;8.548;2023-04-07T02:54:35;99809.72;;;7.64;95.66
32298;BME280;18782;48.984;8.548;2023-04-07T02:57:03;99813.19;;;7.66;95.89
32298;BME280;18782;48.984;8.548;2023-04-07T03:11:15;99798.25;;;7.52;96.08
32298;BME280;18782;48.984;8.548;2023-04-07T03:13:43;99794.88;;;7.53;96.14
32298;BME280;18782;48.984;8.548;2023-04-07T03:16:13;99795.72;;;7.54;96.59
32298;BME280;18782;48.984;8.548;2023-04-07T03:18:54;99793.16;;;7.54;96.70
32298;BME280;18782;48.984;8.548;2023-04-07T03:21:22;99793.13;;;7.52;96.29
32298;BME280;18782;48.984;8.548;2023-04-07T03:23:50;99790.41;;;7.48;96.55
32298;BME280;18782;48.984;8.548;2023-04-07T03:26:19;99789.53;;;7.47;96.71
32298;BME280;18782;48.984;8.548;2023-04-07T03:28:48;99793.00;;;7.49;96.75
32298;BME280;18782;48.984;8.548;2023-04-07T03:31:17;99791.34;;;7.51;96.63
32298;BME280;18782;48.984;8.548;2023-04-07T03:33:48;99789.63;;;7.50;96.44
32298;BME280;18782;48.984;8.548;2023-04-07T03:36:16;99787.88;;;7.49;96.95
32298;BME280;18782;48.984;8.548;2023-04-07T03:38:46;99789.53;;;7.47;97.18
32298;BME280;18782;48.984;8.548;2023-04-07T03:41:16;99793.72;;;7.45;97.23
32298;BME280;18782;48.984;8.548;2023-04-07T03:43:45;99791.97;;;7.44;97.73
32298;BME280;18782;48.984;8.548;2023-04-07T03:46:13;99787.69;;;7.43;97.42
32298;BME280;18782;48.984;8.548;2023-04-07T03:48:41;99794.53;;;7.44;97.39
32298;BME280;18782;48.984;8.548;2023-04-07T03:51:09;99787.69;;;7.43;97.01
32298;BME280;18782;48.984;8.548;2023-04-07T03:53:39;99792.75;;;7.42;97.50
32298;BME280;18782;48.984;8.548;2023-04-07T03:56:21;99795.19;;;7.39;97.42
32298;BME280;18782;48.984;8.548;2023-04-07T03:58:51;99787.34;;;7.34;98.01
32298;BME280;18782;48.984;8.548;2023-04-07T04:01:25;99787.28;;;7.31;98.55
32298;BME280;18782;48.984;8.548;2023-04-07T04:03:55;99791.41;;;7.27;97.83
32298;BME280;18782;48.984;8.548;2023-04-07T04:06:28;99787.75;;;7.21;98.55
32298;BME280;18782;48.984;8.548;2023-04-07T04:09:05;99796.25;;;7.20;98.52
32298;BME280;18782;48.984;8.548;2023-04-07T04:11:35;99783.34;;;7.17;97.52
32298;BME280;18782;48.984;8.548;2023-04-07T04:14:05;99783.22;;;7.14;96.72
32298;BME280;18782;48.984;8.548;2023-04-07T04:16:35;99786.50;;;7.10;96.81
32298;BME280;18782;48.984;8.548;2023-04-07T04:19:09;99783.88;;;7.08;97.08
32298;BME280;18782;48.984;8.548;2023-04-07T04:21:36;99788.91;;;7.05;97.51
32298;BME280;18782;48.984;8.548;2023-04-07T04:24:04;99791.38;;;7.03;97.88
32298;BME280;18782;48.984;8.548;2023-04-07T04:26:32;99786.09;;;6.99;97.08
32298;BME280;18782;48.984;8.548;2023-04-07T04:29:08;99785.19;;;6.97;96.97
32298;BME280;18782;48.984;8.548;2023-04-07T04:31:37;99789.44;;;6.96;97.53
32298;BME280;18782;48.984;8.548;2023-04-07T04:34:06;99796.91;;;6.90;97.96
32298;BME280;18782;48.984;8.548;2023-04-07T04:36:33;99787.56;;;6.92;98.15
32298;BME280;18782;48.984;8.548;2023-04-07T04:39:04;99791.09;;;6.94;98.90
32298;BME280;18782;48.984;8.548;2023-04-07T04:41:33;99803.06;;;6.95;99.00
32298;BME280;18782;48.984;8.548;2023-04-07T04:44:01;99799.69;;;6.96;97.92
32298;BME280;18782;48.984;8.548;2023-04-07T04:46:32;99791.31;;;7.00;97.49
32298;BME280;18782;48.984;8.548;2023-04-07T04:48:59;99790.47;;;7.01;97.23
32298;BME280;18782;48.984;8.548;2023-04-07T04:51:29;99798.91;;;6.99;97.63
32298;BME280;18782;48.984;8.548;2023-04-07T04:54:02;99804.78;;;6.96;98.19
32298;BME280;18782;48.984;8.548;2023-04-07T04:56:33;99796.28;;;6.97;98.17
32298;BME280;18782;48.984;8.548;2023-04-07T04:59:03;99804.78;;;6.96;98.19
32298;BME280;18782;48.984;8.548;2023-04-07T05:01:44;99804.66;;;6.93;97.71
32298;BME280;18782;48.984;8.548;2023-04-07T05:04:15;99805.66;;;6.97;98.27
32298;BME280;18782;48.984;8.548;2023-04-07T05:06:49;99797.22;;;6.99;97.87
32298;BME280;18782;48.984;8.548;2023-04-07T05:09:20;99791.31;;;7.00;97.36
32298;BME280;18782;48.984;8.548;2023-04-07T05:11:49;99804.00;;;6.99;97.67
32298;BME280;18782;48.984;8.548;2023-04-07T05:14:16;99802.28;;;6.98;97.58
32298;BME280;18782;48.984;8.548;2023-04-07T05:16:52;99801.53;;;7.00;97.65
32298;BME280;18782;48.984;8.548;2023-04-07T05:19:25;99804.13;;;7.02;97.71
32298;BME280;18782;48.984;8.548;2023-04-07T05:22:00;99805.84;;;7.01;98.04
32298;BME280;18782;48.984;8.548;2023-04-07T05:24:30;99806.66;;;7.00;98.57
32298;BME280;18782;48.984;8.548;2023-04-07T05:27:00;99808.44;;;7.03;97.92
32298;BME280;18782;48.984;8.548;2023-04-07T05:29:29;99818.72;;;7.04;97.79
32298;BME280;18782;48.984;8.548;2023-04-07T05:31:58;99803.50;;;7.07;97.88
32298;BME280;18782;48.984;8.548;2023-04-07T05:34:29;99807.13;;;7.14;97.68
32298;BME280;18782;48.984;8.548;2023-04-07T05:36:56;99806.34;;;7.15;97.65
32298;BME280;18782;48.984;8.548;2023-04-07T05:39:24;99809.78;;;7.16;98.31
32298;BME280;18782;48.984;8.548;2023-04-07T05:41:54;99809.19;;;7.24;97.59
32298;BME280;18782;48.984;8.548;2023-04-07T05:44:25;99812.63;;;7.25;97.21
32298;BME280;18782;48.984;8.548;2023-04-07T05:46:53;99814.41;;;7.26;97.65
32298;BME280;18782;48.984;8.548;2023-04-07T05:49:25;99821.25;;;7.27;97.30
32298;BME280;18782;48.984;8.548;2023-04-07T05:52:00;99813.84;;;7.35;97.19
32298;BME280;18782;48.984;8.548;2023-04-07T05:54:34;99819.94;;;7.38;97.18
32298;BME280;18782;48.984;8.548;2023-04-07T05:57:03;99816.06;;;7.49;97.27
32298;BME280;18782;48.984;8.548;2023-04-07T05:59:31;99824.97;;;7.61;97.18
32298;BME280;18782;48.984;8.548;2023-04-07T06:01:59;99822.47;;;7.62;95.73
32298;BME280;18782;48.984;8.548;2023-04-07T06:04:30;99814.94;;;7.67;95.85
32298;BME280;18782;48.984;8.548;2023-04-07T06:06:59;99819.16;;;7.65;95.08
32298;BME280;18782;48.984;8.548;2023-04-07T06:09:27;99818.28;;;7.64;95.18
32298;BME280;18782;48.984;8.548;2023-04-07T06:11:54;99819.25;;;7.68;95.69
32298;BME280;18782;48.984;8.548;2023-04-07T06:14:25;99815.09;;;7.71;95.70
32298;BME280;18782;48.984;8.548;2023-04-07T06:16:52;99815.03;;;7.95;95.21
32298;BME280;18782;48.984;8.548;2023-04-07T06:19:20;99814.72;;;8.11;94.44
32298;BME280;18782;48.984;8.548;2023-04-07T06:21:49;99816.22;;;8.32;93.15
32298;BME280;18782;48.984;8.548;2023-04-07T06:24:16;99819.28;;;8.47;92.77
32298;BME280;18782;48.984;8.548;2023-04-07T06:26:44;99816.13;;;8.56;92.13
32298;BME280;18782;48.984;8.548;2023-04-07T06:29:12;99823.28;;;8.66;91.46
32298;BME280;18782;48.984;8.548;2023-04-07T06:31:40;99806.56;;;8.79;90.64
32298;BME280;18782;48.984;8.548;2023-04-07T06:34:07;99823.25;;;8.93;91.09
32298;BME280;18782;48.984;8.548;2023-04-07T06:36:35;99811.56;;;9.04;90.22
32298;BME280;18782;48.984;8.548;2023-04-07T06:39:04;99810.06;;;9.12;89.55
32298;BME280;18782;48.984;8.548;2023-04-07T06:41:32;99805.09;;;9.19;89.18
32298;BME280;18782;48.984;8.548;2023-04-07T06:43:59;99815.56;;;9.25;88.48
32298;BME280;18782;48.984;8.548;2023-04-07T06:46:27;99811.34;;;9.27;88.34
32298;BME280;18782;48.984;8.548;2023-04-07T06:48:54;99816.47;;;9.27;87.98
32298;BME280;18782;48.984;8.548;2023-04-07T06:51:22;99812.94;;;9.23;88.22
32298;BME280;18782;48.984;8.548;2023-04-07T06:53:50;99813.31;;;9.37;87.76
32298;BME280;18782;48.984;8.548;2023-04-07T06:56:19;99819.78;;;9.54;89.00
32298;BME280;18782;48.984;8.548;2023-04-07T06:58:47;99811.63;;;9.71;91.62
32298;BME280;18782;48.984;8.548;2023-04-07T07:01:14;99818.72;;;9.79;89.37
32298;BME280;18782;48.984;8.548;2023-04-07T07:03:42;99815.44;;;9.85;88.87
32298;BME280;18782;48.984;8.548;2023-04-07T07:06:10;99819.22;;;9.99;88.03
32298;BME280;18782;48.984;8.548;2023-04-07T07:08:38;99805.66;;;10.06;86.60
32298;BME280;18782;48.984;8.548;2023-04-07T07:11:06;99813.38;;;10.06;84.54
32298;BME280;18782;48.984;8.548;2023-04-07T07:13:35;99807.31;;;10.03;83.28
32298;BME280;18782;48.984;8.548;2023-04-07T07:16:04;99813.34;;;10.05;82.64
32298;BME280;18782;48.984;8.548;2023-04-07T07:18:31;99817.50;;;10.00;80.89
32298;BME280;18782;48.984;8.548;2023-04-07T07:20:59;99817.50;;;9.98;81.19
32298;BME280;18782;48.984;8.548;2023-04-07T07:23:27;99813.25;;;10.00;81.43
32298;BME280;18782;48.984;8.548;2023-04-07T07:25:54;99815.91;;;10.03;81.60
32298;BME280;18782;48.984;8.548;2023-04-07T07:28:22;99819.28;;;10.02;81.28
32298;BME280;18782;48.984;8.548;2023-04-07T07:30:51;99817.28;;;10.24;82.23
32298;BME280;18782;48.984;8.548;2023-04-07T07:33:19;99814.16;;;10.37;81.47
32298;BME280;18782;48.984;8.548;2023-04-07T07:35:48;99805.91;;;10.52;80.65
32298;BME280;18782;48.984;8.548;2023-04-07T07:38:15;99812.25;;;10.67;80.44
32298;BME280;18782;48.984;8.548;2023-04-07T07:40:43;99803.31;;;10.91;80.94
32298;BME280;18782;48.984;8.548;2023-04-07T07:43:12;99806.16;;;11.03;80.51
32298;BME280;18782;48.984;8.548;2023-04-07T07:45:40;99807.22;;;11.13;79.14
32298;BME280;18782;48.984;8.548;2023-04-07T07:48:08;99811.81;;;11.28;77.28
32298;BME280;18782;48.984;8.548;2023-04-07T07:50:36;99821.47;;;11.41;79.00
32298;BME280;18782;48.984;8.548;2023-04-07T07:53:04;99820.47;;;11.33;71.79
32298;BME280;18782;48.984;8.548;2023-04-07T07:55:31;99821.25;;;11.29;72.69
32298;BME280;18782;48.984;8.548;2023-04-07T07:57:59;99823.84;;;11.29;72.12
32298;BME280;18782;48.984;8.548;2023-04-07T08:00:27;99822.09;;;11.28;71.36
32298;BME280;18782;48.984;8.548;2023-04-07T08:02:54;99815.94;;;11.21;71.56
32298;BME280;18782;48.984;8.548;2023-04-07T08:05:24;99815.94;;;11.21;72.00
32298;BME280;18782;48.984;8.548;2023-04-07T08:07:51;99811.34;;;11.06;70.58
32298;BME280;18782;48.984;8.548;2023-04-07T08:10:20;99818.41;;;11.16;70.67
32298;BME280;18782;48.984;8.548;2023-04-07T08:12:50;99817.56;;;11.16;70.92
32298;BME280;18782;48.984;8.548;2023-04-07T08:15:18;99827.31;;;11.31;70.32
32298;BME280;18782;48.984;8.548;2023-04-07T08:17:46;99821.00;;;11.16;69.94
32298;BME280;18782;48.984;8.548;2023-04-07T08:20:13;99826.25;;;11.21;70.09
32298;BME280;18782;48.984;8.548;2023-04-07T08:22:44;99831.38;;;11.19;68.23
32298;BME280;18782;48.984;8.548;2023-04-07T08:25:11;99833.84;;;11.13;68.71
32298;BME280;18782;48.984;8.548;2023-04-07T08:27:39;99835.44;;;11.08;68.54
32298;BME280;18782;48.984;8.548;2023-04-07T08:30:07;99831.31;;;11.16;68.61
32298;BME280;18782;48.984;8.548;2023-04-07T08:32:36;99837.56;;;11.28;67.66
32298;BME280;18782;48.984;8.548;2023-04-07T08:35:05;99834.91;;;11.24;67.77
32298;BME280;18782;48.984;8.548;2023-04-07T08:37:33;99838.34;;;11.25;68.94
32298;BME280;18782;48.984;8.548;2023-04-07T08:40:04;99835.88;;;11.30;68.61
32298;BME280;18782;48.984;8.548;2023-04-07T08:42:33;99843.09;;;11.05;71.22
32298;BME280;18782;48.984;8.548;2023-04-07T08:45:03;99840.53;;;11.05;70.92
32298;BME280;18782;48.984;8.548;2023-04-07T08:47:34;99841.00;;;11.28;70.21
32298;BME280;18782;48.984;8.548;2023-04-07T08:50:03;99848.03;;;11.37;68.42
32298;BME280;18782;48.984;8.548;2023-04-07T08:52:33;99845.16;;;11.65;69.11
32298;BME280;18782;48.984;8.548;2023-04-07T08:55:03;99847.09;;;11.79;67.24
32298;BME280;18782;48.984;8.548;2023-04-07T08:57:32;99849.09;;;11.92;67.55
32298;BME280;18782;48.984;8.548;2023-04-07T09:00:01;99850.06;;;11.98;67.41
32298;BME280;18782;48.984;8.548;2023-04-07T09:02:32;99847.47;;;11.98;67.77
32298;BME280;18782;48.984;8.548;2023-04-07T09:05:02;99844.38;;;12.16;66.78
32298;BME280;18782;48.984;8.548;2023-04-07T09:07:31;99846.03;;;12.14;65.21
32298;BME280;18782;48.984;8.548;2023-04-07T09:09:59;99851.97;;;12.10;65.59
32298;BME280;18782;48.984;8.548;2023-04-07T09:12:28;99854.91;;;12.32;65.02
32298;BME280;18782;48.984;8.548;2023-04-07T09:14:56;99848.78;;;12.23;63.88
32298;BME280;18782;48.984;8.548;2023-04-07T09:17:25;99843.16;;;12.49;64.76
32298;BME280;18782;48.984;8.548;2023-04-07T09:19:55;99845.75;;;12.50;64.49
32298;BME280;18782;48.984;8.548;2023-04-07T09:22:37;99855.38;;;12.62;65.31
32298;BME280;18782;48.984;8.548;2023-04-07T09:25:09;99856.94;;;12.51;64.86
32298;BME280;18782;48.984;8.548;2023-04-07T09:27:38;99849.34;;;12.60;65.05
32298;BME280;18782;48.984;8.548;2023-04-07T09:30:10;99852.84;;;12.65;63.39
32298;BME280;18782;48.984;8.548;2023-04-07T09:32:40;99850.28;;;12.68;62.44
32298;BME280;18782;48.984;8.548;2023-04-07T09:35:08;99850.34;;;12.71;64.60
32298;BME280;18782;48.984;8.548;2023-04-07T09:37:36;99857.50;;;12.91;66.10
32298;BME280;18782;48.984;8.548;2023-04-07T09:40:04;99853.16;;;12.88;65.84
32298;BME280;18782;48.984;8.548;2023-04-07T09:42:32;99856.66;;;12.92;65.44
32298;BME280;18782;48.984;8.548;2023-04-07T09:45:04;99859.47;;;13.10;63.80
32298;BME280;18782;48.984;8.548;2023-04-07T09:47:32;99868.06;;;13.09;65.29
32298;BME280;18782;48.984;8.548;2023-04-07T09:49:59;99857.78;;;13.11;64.84
32298;BME280;18782;48.984;8.548;2023-04-07T09:52:49;99864.06;;;13.28;64.24
32298;BME280;18782;48.984;8.548;2023-04-07T09:55:19;99861.41;;;13.25;63.66
32298;BME280;18782;48.984;8.548;2023-04-07T09:57:48;99864.75;;;13.16;63.59
32298;BME280;18782;48.984;8.548;2023-04-07T10:00:18;99857.59;;;12.97;63.70
32298;BME280;18782;48.984;8.548;2023-04-07T10:02:46;99857.53;;;12.94;64.12
32298;BME280;18782;48.984;8.548;2023-04-07T10:05:14;99865.56;;;13.14;63.25
32298;BME280;18782;48.984;8.548;2023-04-07T10:07:42;99867.78;;;12.85;63.42
32298;BME280;18782;48.984;8.548;2023-04-07T10:10:10;99868.44;;;12.71;64.67
32298;BME280;18782;48.984;8.548;2023-04-07T10:12:38;99866.31;;;12.44;65.92
32298;BME280;18782;48.984;8.548;2023-04-07T10:15:07;99859.81;;;12.71;66.13
32298;BME280;18782;48.984;8.548;2023-04-07T10:17:40;99864.91;;;12.68;66.55
32298;BME280;18782;48.984;8.548;2023-04-07T10:20:14;99875.53;;;12.86;64.03
32298;BME280;18782;48.984;8.548;2023-04-07T10:22:44;99866.00;;;12.82;62.57
32298;BME280;18782;48.984;8.548;2023-04-07T10:25:16;99862.91;;;13.09;63.34
32298;BME280;18782;48.984;8.548;2023-04-07T10:27:48;99864.06;;;13.28;63.06
32298;BME280;18782;48.984;8.548;2023-04-07T10:30:21;99872.72;;;13.31;60.39
32298;BME280;18782;48.984;8.548;2023-04-07T10:32:52;99859.06;;;13.45;60.70
32298;BME280;18782;48.984;8.548;2023-04-07T10:35:21;99860.09;;;13.59;60.74
32298;BME280;18782;48.984;8.548;2023-04-07T10:38:08;99855.84;;;13.64;60.23
32298;BME280;18782;48.984;8.548;2023-04-07T10:40:37;99865.66;;;13.96;59.56
32298;BME280;18782;48.984;8.548;2023-04-07T10:43:06;99867.56;;;14.15;59.34
32298;BME280;18782;48.984;8.548;2023-04-07T10:45:53;99863.28;;;14.22;60.64
32298;BME280;18782;48.984;8.548;2023-04-07T10:48:23;99860.44;;;13.93;60.03
32298;BME280;18782;48.984;8.548;2023-04-07T10:51:16;99855.53;;;14.23;58.63
32298;BME280;18782;48.984;8.548;2023-04-07T10:54:18;99852.38;;;14.61;56.92
32298;BME280;18782;48.984;8.548;2023-04-07T10:57:06;99850.88;;;15.03;55.51
32298;BME280;18782;48.984;8.548;2023-04-07T10:59:36;99848.13;;;14.71;54.52
32298;BME280;18782;48.984;8.548;2023-04-07T11:02:29;99856.72;;;14.67;55.75
32298;BME280;18782;48.984;8.548;2023-04-07T11:04:59;99855.78;;;14.54;57.19
32298;BME280;18782;48.984;8.548;2023-04-07T11:07:47;99860.16;;;14.61;57.66
32298;BME280;18782;48.984;8.548;2023-04-07T11:10:16;99860.47;;;13.99;59.18
32298;BME280;18782;48.984;8.548;2023-04-07T11:12:57;99847.44;;;13.83;60.64
32298;BME280;18782;48.984;8.548;2023-04-07T11:15:26;99846.72;;;14.00;62.51
32298;BME280;18782;48.984;8.548;2023-04-07T11:18:16;99849.41;;;14.10;62.21
32298;BME280;18782;48.984;8.548;2023-04-07T11:20:47;99855.53;;;14.20;62.36
32298;BME280;18782;48.984;8.548;2023-04-07T11:23:16;99854.38;;;13.89;61.98
32298;BME280;18782;48.984;8.548;2023-04-07T11:25:46;99848.34;;;13.92;63.36
32298;BME280;18782;48.984;8.548;2023-04-07T11:28:14;99851.03;;;14.02;63.00
32298;BME280;18782;48.984;8.548;2023-04-07T11:30:47;99847.44;;;13.88;63.40
32298;BME280;18782;48.984;8.548;2023-04-07T11:33:18;99865.59;;;13.91;64.67
32298;BME280;18782;48.984;8.548;2023-04-07T11:35:49;99849.94;;;13.77;65.24
32298;BME280;18782;48.984;8.548;2023-04-07T11:38:18;99857.84;;;13.90;65.86
32298;BME280;18782;48.984;8.548;2023-04-07T11:40:46;99862.16;;;13.94;66.58
32298;BME280;18782;48.984;8.548;2023-04-07T11:43:15;99865.59;;;13.90;65.08
32298;BME280;18782;48.984;8.548;2023-04-07T11:45:43;99853.63;;;14.04;66.92
32298;BME280;18782;48.984;8.548;2023-04-07T11:48:28;99865.78;;;14.14;64.51
32298;BME280;18782;48.984;8.548;2023-04-07T11:50:57;99862.25;;;14.03;63.59
32298;BME280;18782;48.984;8.548;2023-04-07T11:53:26;99862.34;;;14.12;63.11
32298;BME280;18782;48.984;8.548;2023-04-07T11:55:59;99863.34;;;14.28;63.50
32298;BME280;18782;48.984;8.548;2023-04-07T11:58:27;99862.59;;;14.41;62.22
32298;BME280;18782;48.984;8.548;2023-04-07T12:00:54;99864.50;;;14.65;61.48
32298;BME280;18782;48.984;8.548;2023-04-07T12:03:22;99862.00;;;14.82;58.74
32298;BME280;18782;48.984;8.548;2023-04-07T12:05:50;99857.06;;;15.34;60.15
32298;BME280;18782;48.984;8.548;2023-04-07T12:08:35;99860.75;;;16.18;57.27
32298;BME280;18782;48.984;8.548;2023-04-07T12:11:03;99864.97;;;17.13;54.89
32298;BME280;18782;48.984;8.548;2023-04-07T12:13:31;99861.81;;;18.14;53.22
32298;BME280;18782;48.984;8.548;2023-04-07T12:15:59;99856.94;;;18.77;49.11
32298;BME280;18782;48.984;8.548;2023-04-07T12:18:27;99851.56;;;18.92;48.36
32298;BME280;18782;48.984;8.548;2023-04-07T12:20:55;99858.72;;;18.75;46.79
32298;BME280;18782;48.984;8.548;2023-04-07T12:23:25;99853.69;;;18.54;44.48
32298;BME280;18782;48.984;8.548;2023-04-07T12:25:53;99858.72;;;17.47;45.73
32298;BME280;18782;48.984;8.548;2023-04-07T12:28:20;99855.53;;;16.81;47.01
32298;BME280;18782;48.984;8.548;2023-04-07T12:30:48;99853.81;;;16.40;47.50
32298;BME280;18782;48.984;8.548;2023-04-07T12:33:16;99851.22;;;16.37;48.06
32298;BME280;18782;48.984;8.548;2023-04-07T12:35:43;99856.38;;;16.59;47.25
32298;BME280;18782;48.984;8.548;2023-04-07T12:38:11;99845.13;;;16.70;47.11
32298;BME280;18782;48.984;8.548;2023-04-07T12:40:40;99852.94;;;16.81;44.71
32298;BME280;18782;48.984;8.548;2023-04-07T12:43:08;99860.72;;;16.67;46.57
32298;BME280;18782;48.984;8.548;2023-04-07T12:45:36;99869.38;;;16.79;49.13
32298;BME280;18782;48.984;8.548;2023-04-07T12:48:03;99861.56;;;16.68;50.45
32298;BME280;18782;48.984;8.548;2023-04-07T12:50:31;99861.56;;;16.59;51.61
32298;BME280;18782;48.984;8.548;2023-04-07T12:52:59;99861.59;;;16.42;50.89
32298;BME280;18782;48.984;8.548;2023-04-07T12:55:28;99864.19;;;16.28;51.04
32298;BME280;18782;48.984;8.548;2023-04-07T12:58:00;99877.19;;;16.10;51.58
32298;BME280;18782;48.984;8.548;2023-04-07T13:00:27;99872.84;;;15.94;51.15
32298;BME280;18782;48.984;8.548;2023-04-07T13:02:55;99871.97;;;16.01;51.52
32298;BME280;18782;48.984;8.548;2023-04-07T13:05:24;99873.72;;;15.99;52.46
32298;BME280;18782;48.984;8.548;2023-04-07T13:07:51;99875.44;;;16.88;51.42
32298;BME280;18782;48.984;8.548;2023-04-07T13:10:19;99878.44;;;17.97;46.91
32298;BME280;18782;48.984;8.548;2023-04-07T13:12:47;99887.00;;;18.15;46.43
32298;BME280;18782;48.984;8.548;2023-04-07T13:15:16;99887.28;;;17.75;47.09
32298;BME280;18782;48.984;8.548;2023-04-07T13:17:43;99880.34;;;17.65;46.66
32298;BME280;18782;48.984;8.548;2023-04-07T13:20:12;99878.88;;;17.03;47.29
32298;BME280;18782;48.984;8.548;2023-04-07T13:22:45;99884.50;;;17.99;46.01
32298;BME280;18782;48.984;8.548;2023-04-07T13:25:21;99879.47;;;19.58;42.88
32298;BME280;18782;48.984;8.548;2023-04-07T13:27:48;99888.22;;;19.54;41.67
32298;BME280;18782;48.984;8.548;2023-04-07T13:30:17;99888.97;;;20.24;40.90
32298;BME280;18782;48.984;8.548;2023-04-07T13:32:48;99877.75;;;21.18;39.47
32298;BME280;18782;48.984;8.548;2023-04-07T13:35:16;99878.72;;;21.55;38.76
32298;BME280;18782;48.984;8.548;2023-04-07T13:37:43;99886.59;;;22.33;35.85
32298;BME280;18782;48.984;8.548;2023-04-07T13:40:11;99882.94;;;22.01;36.07